sensor_id;sensor_type;location;lat;lon;timestamp;P1;durP1;ratioP1;P2;durP2;ratioP2
25419;SDS011;13354;48.174;11.566;2022-11-15T00:01:32;6.05;;;4.50;;
25419;SDS011;13354;48.174;11.566;2022-11-15T00:03:57;7.13;;;5.18;;
25419;SDS011;13354;48.174;11.566;2022-11-15T00:06:23;6.50;;;4.00;;
25419;SDS011;13354;48.174;11.566;2022-11-15T00:08:48;5.20;;;4.13;;
25419;SDS011;13354;48.174;11.566;2022-11-15T00:11:13;7.18;;;4.38;;
25419;SDS011;13354;48.174;11.566;2022-11-15T00:13:39;7.60;;;4.55;;
25419;SDS011;13354;48.174;11.566;2022-11-15T00:16:04;6.40;;;4.25;;
25419;SDS011;13354;48.174;11.566;2022-11-15T00:18:30;6.28;;;4.40;;
25419;SDS011;13354;48.174;11.566;2022-11-15T00:20:55;6.93;;;4.65;;
25419;SDS011;13354;48.174;11.566;2022-11-15T00:23:27;6.35;;;4.53;;
25419;SDS011;13354;48.174;11.566;2022-11-15T00:25:55;6.53;;;4.60;;
25419;SDS011;13354;48.174;11.566;2022-11-15T00:28:24;5.30;;;4.07;;
25419;SDS011;13354;48.174;11.566;2022-11-15T00:30:50;5.95;;;4.07;;
25419;SDS011;13354;48.174;11.566;2022-11-15T00:33:15;8.55;;;4.55;;
25419;SDS011;13354;48.174;11.566;2022-11-15T00:35:41;5.90;;;4.38;;
25419;SDS011;13354;48.174;11.566;2022-11-15T00:38:06;5.57;;;4.15;;
25419;SDS011;13354;48.174;11.566;2022-11-15T00:40:31;6.72;;;4.32;;
25419;SDS011;13354;48.174;11.566;2022-11-15T00:42:57;4.65;;;3.85;;
25419;SDS011;13354;48.174;11.566;2022-11-15T00:45:23;6.20;;;4.45;;
25419;SDS011;13354;48.174;11.566;2022-11-15T00:47:49;5.60;;;4.28;;
25419;SDS011;13354;48.174;11.566;2022-11-15T00:50:15;5.00;;;4.13;;
25419;SDS011;13354;48.174;11.566;2022-11-15T00:52:40;5.25;;;3.80;;
25419;SDS011;13354;48.174;11.566;2022-11-15T00:55:06;4.43;;;3.80;;
25419;SDS011;13354;48.174;11.566;2022-11-15T00:57:31;4.65;;;3.50;;
25419;SDS011;13354;48.174;11.566;2022-11-15T00:59:57;4.65;;;3.60;;
25419;SDS011;13354;48.174;11.566;2022-11-15T01:02:22;3.85;;;3.45;;
25419;SDS011;13354;48.174;11.566;2022-11-15T01:04:47;5.88;;;3.75;;
25419;SDS011;13354;48.174;11.566;2022-11-15T01:07:13;4.75;;;3.67;;
25419;SDS011;13354;48.174;11.566;2022-11-15T01:09:38;5.22;;;3.53;;
25419;SDS011;13354;48.174;11.566;2022-11-15T01:12:04;4.43;;;3.40;;
25419;SDS011;13354;48.174;11.566;2022-11-15T01:14:30;4.72;;;3.30;;
25419;SDS011;13354;48.174;11.566;2022-11-15T01:16:55;4.43;;;3.90;;
25419;SDS011;13354;48.174;11.566;2022-11-15T01:19:20;4.05;;;3.65;;
25419;SDS011;13354;48.174;11.566;2022-11-15T01:21:48;5.05;;;3.30;;
25419;SDS011;13354;48.174;11.566;2022-11-15T01:24:14;5.82;;;3.75;;
25419;SDS011;13354;48.174;11.566;2022-11-15T01:26:40;6.47;;;3.80;;
25419;SDS011;13354;48.174;11.566;2022-11-15T01:29:05;5.65;;;3.15;;
25419;SDS011;13354;48.174;11.566;2022-11-15T01:31:31;4.10;;;3.20;;
25419;SDS011;13354;48.174;11.566;2022-11-15T01:33:56;5.57;;;3.58;;
25419;SDS011;13354;48.174;11.566;2022-11-15T01:36:21;4.85;;;3.70;;
25419;SDS011;13354;48.174;11.566;2022-11-15T01:38:52;4.32;;;3.42;;
25419;SDS011;13354;48.174;11.566;2022-11-15T01:41:28;5.70;;;3.72;;
25419;SDS011;13354;48.174;11.566;2022-11-15T01:43:57;5.38;;;3.30;;
25419;SDS011;13354;48.174;11.566;2022-11-15T01:46:42;3.78;;;3.25;;
25419;SDS011;13354;48.174;11.566;2022-11-15T01:49:17;3.80;;;3.42;;
25419;SDS011;13354;48.174;11.566;2022-11-15T01:51:45;6.13;;;3.20;;
25419;SDS011;13354;48.174;11.566;2022-11-15T01:54:12;5.38;;;3.58;;
25419;SDS011;13354;48.174;11.566;2022-11-15T01:56:43;4.40;;;3.50;;
25419;SDS011;13354;48.174;11.566;2022-11-15T01:59:15;3.92;;;2.78;;
25419;SDS011;13354;48.174;11.566;2022-11-15T02:01:40;5.22;;;3.45;;
25419;SDS011;13354;48.174;11.566;2022-11-15T02:04:11;3.88;;;2.97;;
25419;SDS011;13354;48.174;11.566;2022-11-15T02:06:41;4.05;;;3.38;;
25419;SDS011;13354;48.174;11.566;2022-11-15T02:09:08;3.95;;;3.40;;
25419;SDS011;13354;48.174;11.566;2022-11-15T02:11:33;3.10;;;2.80;;
25419;SDS011;13354;48.174;11.566;2022-11-15T02:13:59;3.83;;;3.42;;
25419;SDS011;13354;48.174;11.566;2022-11-15T02:16:33;3.88;;;3.28;;
25419;SDS011;13354;48.174;11.566;2022-11-15T02:19:18;3.15;;;2.80;;
25419;SDS011;13354;48.174;11.566;2022-11-15T02:22:04;4.30;;;3.30;;
25419;SDS011;13354;48.174;11.566;2022-11-15T02:24:38;5.28;;;3.33;;
25419;SDS011;13354;48.174;11.566;2022-11-15T02:30:20;3.95;;;3.38;;
25419;SDS011;13354;48.174;11.566;2022-11-15T02:33:03;3.72;;;3.20;;
25419;SDS011;13354;48.174;11.566;2022-11-15T02:38:29;4.53;;;3.22;;
25419;SDS011;13354;48.174;11.566;2022-11-15T02:41:03;4.05;;;3.20;;
25419;SDS011;13354;48.174;11.566;2022-11-15T02:46:33;4.20;;;3.05;;
25419;SDS011;13354;48.174;11.566;2022-11-15T02:49:20;3.42;;;3.10;;
25419;SDS011;13354;48.174;11.566;2022-11-15T02:51:48;4.47;;;3.15;;
25419;SDS011;13354;48.174;11.566;2022-11-15T02:54:18;3.13;;;2.83;;
25419;SDS011;13354;48.174;11.566;2022-11-15T02:56:47;3.67;;;2.90;;
25419;SDS011;13354;48.174;11.566;2022-11-15T02:59:36;4.97;;;3.30;;
25419;SDS011;13354;48.174;11.566;2022-11-15T03:07:20;4.45;;;3.35;;
25419;SDS011;13354;48.174;11.566;2022-11-15T03:09:52;4.75;;;3.13;;
25419;SDS011;13354;48.174;11.566;2022-11-15T03:12:28;5.90;;;3.20;;
25419;SDS011;13354;48.174;11.566;2022-11-15T03:15:08;4.05;;;3.25;;
25419;SDS011;13354;48.174;11.566;2022-11-15T03:17:43;3.90;;;3.03;;
25419;SDS011;13354;48.174;11.566;2022-11-15T03:20:17;3.33;;;2.92;;
25419;SDS011;13354;48.174;11.566;2022-11-15T03:22:44;3.58;;;3.13;;
25419;SDS011;13354;48.174;11.566;2022-11-15T03:25:13;3.72;;;2.83;;
25419;SDS011;13354;48.174;11.566;2022-11-15T03:27:46;3.63;;;3.10;;
25419;SDS011;13354;48.174;11.566;2022-11-15T03:30:17;3.22;;;2.92;;
25419;SDS011;13354;48.174;11.566;2022-11-15T03:32:47;3.65;;;3.13;;
25419;SDS011;13354;48.174;11.566;2022-11-15T03:35:19;3.33;;;2.90;;
25419;SDS011;13354;48.174;11.566;2022-11-15T03:40:36;3.35;;;2.65;;
25419;SDS011;13354;48.174;11.566;2022-11-15T03:45:39;4.13;;;2.80;;
25419;SDS011;13354;48.174;11.566;2022-11-15T03:48:13;3.05;;;2.70;;
25419;SDS011;13354;48.174;11.566;2022-11-15T03:50:42;2.90;;;2.60;;
25419;SDS011;13354;48.174;11.566;2022-11-15T03:53:09;4.35;;;2.75;;
25419;SDS011;13354;48.174;11.566;2022-11-15T03:55:35;3.00;;;2.60;;
25419;SDS011;13354;48.174;11.566;2022-11-15T03:58:00;3.55;;;2.90;;
25419;SDS011;13354;48.174;11.566;2022-11-15T04:00:26;3.50;;;2.78;;
25419;SDS011;13354;48.174;11.566;2022-11-15T04:02:52;3.83;;;2.83;;
25419;SDS011;13354;48.174;11.566;2022-11-15T04:05:18;4.22;;;2.58;;
25419;SDS011;13354;48.174;11.566;2022-11-15T04:07:44;3.20;;;2.50;;
25419;SDS011;13354;48.174;11.566;2022-11-15T04:10:10;2.92;;;2.63;;
25419;SDS011;13354;48.174;11.566;2022-11-15T04:12:37;2.83;;;2.53;;
25419;SDS011;13354;48.174;11.566;2022-11-15T04:15:08;2.95;;;2.47;;
25419;SDS011;13354;48.174;11.566;2022-11-15T04:17:36;3.45;;;2.83;;
25419;SDS011;13354;48.174;11.566;2022-11-15T04:20:03;5.38;;;3.00;;
25419;SDS011;13354;48.174;11.566;2022-11-15T04:22:48;3.05;;;2.67;;
25419;SDS011;13354;48.174;11.566;2022-11-15T04:25:32;3.25;;;2.80;;
25419;SDS011;13354;48.174;11.566;2022-11-15T04:27:57;3.95;;;2.78;;
25419;SDS011;13354;48.174;11.566;2022-11-15T04:30:22;3.58;;;3.00;;
25419;SDS011;13354;48.174;11.566;2022-11-15T04:32:48;3.97;;;3.10;;
25419;SDS011;13354;48.174;11.566;2022-11-15T04:35:13;4.88;;;3.22;;
25419;SDS011;13354;48.174;11.566;2022-11-15T04:37:39;3.35;;;2.83;;
25419;SDS011;13354;48.174;11.566;2022-11-15T04:40:04;3.20;;;2.90;;
25419;SDS011;13354;48.174;11.566;2022-11-15T04:42:30;3.78;;;2.72;;
25419;SDS011;13354;48.174;11.566;2022-11-15T04:44:55;4.05;;;2.85;;
25419;SDS011;13354;48.174;11.566;2022-11-15T04:47:21;3.70;;;2.90;;
25419;SDS011;13354;48.174;11.566;2022-11-15T04:49:46;3.03;;;2.50;;
25419;SDS011;13354;48.174;11.566;2022-11-15T04:52:11;4.15;;;2.60;;
25419;SDS011;13354;48.174;11.566;2022-11-15T04:54:37;3.33;;;2.92;;
25419;SDS011;13354;48.174;11.566;2022-11-15T04:57:02;6.00;;;3.10;;
25419;SDS011;13354;48.174;11.566;2022-11-15T04:59:28;3.83;;;3.25;;
25419;SDS011;13354;48.174;11.566;2022-11-15T05:01:53;5.70;;;3.20;;
25419;SDS011;13354;48.174;11.566;2022-11-15T05:04:18;4.00;;;3.42;;
25419;SDS011;13354;48.174;11.566;2022-11-15T05:06:44;6.15;;;3.00;;
25419;SDS011;13354;48.174;11.566;2022-11-15T05:09:11;4.60;;;3.17;;
25419;SDS011;13354;48.174;11.566;2022-11-15T05:11:38;4.18;;;3.20;;
25419;SDS011;13354;48.174;11.566;2022-11-15T05:14:03;4.63;;;3.20;;
25419;SDS011;13354;48.174;11.566;2022-11-15T05:16:29;3.97;;;3.25;;
25419;SDS011;13354;48.174;11.566;2022-11-15T05:18:54;3.53;;;3.10;;
25419;SDS011;13354;48.174;11.566;2022-11-15T05:21:19;7.35;;;4.50;;
25419;SDS011;13354;48.174;11.566;2022-11-15T05:23:45;4.82;;;4.13;;
25419;SDS011;13354;48.174;11.566;2022-11-15T05:26:11;5.45;;;3.47;;
25419;SDS011;13354;48.174;11.566;2022-11-15T05:28:37;3.45;;;3.15;;
25419;SDS011;13354;48.174;11.566;2022-11-15T05:31:06;4.43;;;3.30;;
25419;SDS011;13354;48.174;11.566;2022-11-15T05:33:33;2.95;;;2.47;;
25419;SDS011;13354;48.174;11.566;2022-11-15T05:36:00;2.42;;;2.22;;
25419;SDS011;13354;48.174;11.566;2022-11-15T05:38:29;4.45;;;2.50;;
25419;SDS011;13354;48.174;11.566;2022-11-15T05:40:55;3.13;;;2.42;;
25419;SDS011;13354;48.174;11.566;2022-11-15T05:43:21;2.65;;;2.30;;
25419;SDS011;13354;48.174;11.566;2022-11-15T05:45:48;7.25;;;2.78;;
25419;SDS011;13354;48.174;11.566;2022-11-15T05:48:13;3.00;;;2.70;;
25419;SDS011;13354;48.174;11.566;2022-11-15T05:50:41;3.72;;;2.55;;
25419;SDS011;13354;48.174;11.566;2022-11-15T05:53:08;5.85;;;2.40;;
25419;SDS011;13354;48.174;11.566;2022-11-15T05:55:38;2.72;;;2.53;;
25419;SDS011;13354;48.174;11.566;2022-11-15T05:58:04;3.20;;;2.83;;
25419;SDS011;13354;48.174;11.566;2022-11-15T06:00:30;4.72;;;2.88;;
25419;SDS011;13354;48.174;11.566;2022-11-15T06:02:55;2.53;;;2.33;;
25419;SDS011;13354;48.174;11.566;2022-11-15T06:05:20;2.78;;;2.47;;
25419;SDS011;13354;48.174;11.566;2022-11-15T06:07:46;2.47;;;2.20;;
25419;SDS011;13354;48.174;11.566;2022-11-15T06:10:11;2.65;;;2.30;;
25419;SDS011;13354;48.174;11.566;2022-11-15T06:12:36;2.88;;;2.60;;
25419;SDS011;13354;48.174;11.566;2022-11-15T06:15:02;3.05;;;2.10;;
25419;SDS011;13354;48.174;11.566;2022-11-15T06:17:28;4.40;;;2.60;;
25419;SDS011;13354;48.174;11.566;2022-11-15T06:19:54;7.35;;;3.40;;
25419;SDS011;13354;48.174;11.566;2022-11-15T06:22:19;9.65;;;3.40;;
25419;SDS011;13354;48.174;11.566;2022-11-15T06:24:44;4.65;;;3.58;;
25419;SDS011;13354;48.174;11.566;2022-11-15T06:27:10;5.68;;;2.70;;
25419;SDS011;13354;48.174;11.566;2022-11-15T06:29:36;3.00;;;2.50;;
25419;SDS011;13354;48.174;11.566;2022-11-15T06:32:01;3.10;;;2.17;;
25419;SDS011;13354;48.174;11.566;2022-11-15T06:34:27;5.28;;;2.60;;
25419;SDS011;13354;48.174;11.566;2022-11-15T06:36:52;8.00;;;2.40;;
25419;SDS011;13354;48.174;11.566;2022-11-15T06:39:17;3.30;;;2.50;;
25419;SDS011;13354;48.174;11.566;2022-11-15T06:41:43;2.75;;;2.47;;
25419;SDS011;13354;48.174;11.566;2022-11-15T06:44:08;2.97;;;2.67;;
25419;SDS011;13354;48.174;11.566;2022-11-15T06:46:34;3.22;;;2.90;;
25419;SDS011;13354;48.174;11.566;2022-11-15T06:48:59;3.42;;;2.80;;
25419;SDS011;13354;48.174;11.566;2022-11-15T06:51:24;4.07;;;2.40;;
25419;SDS011;13354;48.174;11.566;2022-11-15T06:53:50;3.80;;;3.10;;
25419;SDS011;13354;48.174;11.566;2022-11-15T06:56:15;4.30;;;2.95;;
25419;SDS011;13354;48.174;11.566;2022-11-15T06:58:40;3.75;;;2.95;;
25419;SDS011;13354;48.174;11.566;2022-11-15T07:01:10;4.90;;;3.00;;
25419;SDS011;13354;48.174;11.566;2022-11-15T07:03:41;6.85;;;2.80;;
25419;SDS011;13354;48.174;11.566;2022-11-15T07:06:07;8.32;;;3.20;;
25419;SDS011;13354;48.174;11.566;2022-11-15T07:08:33;5.43;;;3.40;;
25419;SDS011;13354;48.174;11.566;2022-11-15T07:11:00;7.93;;;3.83;;
25419;SDS011;13354;48.174;11.566;2022-11-15T07:13:28;5.93;;;3.20;;
25419;SDS011;13354;48.174;11.566;2022-11-15T07:15:57;5.38;;;3.35;;
25419;SDS011;13354;48.174;11.566;2022-11-15T07:18:23;4.20;;;3.05;;
25419;SDS011;13354;48.174;11.566;2022-11-15T07:20:48;3.60;;;3.03;;
25419;SDS011;13354;48.174;11.566;2022-11-15T07:23:14;5.22;;;3.00;;
25419;SDS011;13354;48.174;11.566;2022-11-15T07:25:39;7.90;;;3.60;;
25419;SDS011;13354;48.174;11.566;2022-11-15T07:28:04;7.75;;;2.97;;
25419;SDS011;13354;48.174;11.566;2022-11-15T07:30:30;12.88;;;3.70;;
25419;SDS011;13354;48.174;11.566;2022-11-15T07:32:56;7.20;;;3.40;;
25419;SDS011;13354;48.174;11.566;2022-11-15T07:35:23;5.35;;;3.03;;
25419;SDS011;13354;48.174;11.566;2022-11-15T07:38:01;5.57;;;3.10;;
25419;SDS011;13354;48.174;11.566;2022-11-15T07:40:28;7.10;;;3.55;;
25419;SDS011;13354;48.174;11.566;2022-11-15T07:42:59;7.55;;;3.08;;
25419;SDS011;13354;48.174;11.566;2022-11-15T07:45:28;8.60;;;3.17;;
25419;SDS011;13354;48.174;11.566;2022-11-15T07:47:54;10.63;;;3.67;;
25419;SDS011;13354;48.174;11.566;2022-11-15T07:50:21;7.65;;;3.22;;
25419;SDS011;13354;48.174;11.566;2022-11-15T07:52:46;9.55;;;4.07;;
25419;SDS011;13354;48.174;11.566;2022-11-15T07:55:12;7.68;;;3.70;;
25419;SDS011;13354;48.174;11.566;2022-11-15T07:57:37;10.13;;;3.88;;
25419;SDS011;13354;48.174;11.566;2022-11-15T08:00:03;10.85;;;4.03;;
25419;SDS011;13354;48.174;11.566;2022-11-15T08:02:29;9.85;;;4.30;;
25419;SDS011;13354;48.174;11.566;2022-11-15T08:04:55;7.10;;;3.90;;
25419;SDS011;13354;48.174;11.566;2022-11-15T08:07:20;7.03;;;3.20;;
25419;SDS011;13354;48.174;11.566;2022-11-15T08:09:46;7.82;;;3.42;;
25419;SDS011;13354;48.174;11.566;2022-11-15T08:12:11;9.05;;;3.58;;
25419;SDS011;13354;48.174;11.566;2022-11-15T08:14:36;8.25;;;3.22;;
25419;SDS011;13354;48.174;11.566;2022-11-15T08:17:02;6.82;;;3.40;;
25419;SDS011;13354;48.174;11.566;2022-11-15T08:19:27;8.10;;;5.13;;
25419;SDS011;13354;48.174;11.566;2022-11-15T08:21:52;9.18;;;5.35;;
25419;SDS011;13354;48.174;11.566;2022-11-15T08:24:18;5.95;;;3.78;;
25419;SDS011;13354;48.174;11.566;2022-11-15T08:26:43;5.38;;;3.20;;
25419;SDS011;13354;48.174;11.566;2022-11-15T08:29:09;7.00;;;2.88;;
25419;SDS011;13354;48.174;11.566;2022-11-15T08:31:35;6.57;;;2.90;;
25419;SDS011;13354;48.174;11.566;2022-11-15T08:34:01;7.00;;;2.72;;
25419;SDS011;13354;48.174;11.566;2022-11-15T08:36:27;5.13;;;2.67;;
25419;SDS011;13354;48.174;11.566;2022-11-15T08:38:53;7.22;;;3.38;;
25419;SDS011;13354;48.174;11.566;2022-11-15T08:41:30;5.63;;;2.85;;
25419;SDS011;13354;48.174;11.566;2022-11-15T08:43:58;5.70;;;2.72;;
25419;SDS011;13354;48.174;11.566;2022-11-15T08:46:23;9.40;;;3.10;;
25419;SDS011;13354;48.174;11.566;2022-11-15T08:48:49;4.20;;;3.25;;
25419;SDS011;13354;48.174;11.566;2022-11-15T08:51:15;8.02;;;3.17;;
25419;SDS011;13354;48.174;11.566;2022-11-15T08:53:41;5.93;;;2.90;;
25419;SDS011;13354;48.174;11.566;2022-11-15T08:56:07;3.80;;;2.70;;
25419;SDS011;13354;48.174;11.566;2022-11-15T08:58:34;4.50;;;2.58;;
25419;SDS011;13354;48.174;11.566;2022-11-15T09:01:00;8.85;;;2.95;;
25419;SDS011;13354;48.174;11.566;2022-11-15T09:03:26;4.50;;;2.67;;
25419;SDS011;13354;48.174;11.566;2022-11-15T09:05:57;7.97;;;2.80;;
25419;SDS011;13354;48.174;11.566;2022-11-15T09:08:25;8.18;;;2.65;;
25419;SDS011;13354;48.174;11.566;2022-11-15T09:10:54;8.23;;;2.47;;
25419;SDS011;13354;48.174;11.566;2022-11-15T09:13:19;4.85;;;2.30;;
25419;SDS011;13354;48.174;11.566;2022-11-15T09:15:44;6.43;;;2.75;;
25419;SDS011;13354;48.174;11.566;2022-11-15T09:18:10;5.15;;;2.90;;
25419;SDS011;13354;48.174;11.566;2022-11-15T09:20:35;7.78;;;3.22;;
25419;SDS011;13354;48.174;11.566;2022-11-15T09:23:01;7.10;;;3.10;;
25419;SDS011;13354;48.174;11.566;2022-11-15T09:25:28;5.15;;;2.70;;
25419;SDS011;13354;48.174;11.566;2022-11-15T09:27:54;4.85;;;2.90;;
25419;SDS011;13354;48.174;11.566;2022-11-15T09:30:19;5.47;;;3.42;;
25419;SDS011;13354;48.174;11.566;2022-11-15T09:32:44;7.32;;;3.63;;
25419;SDS011;13354;48.174;11.566;2022-11-15T09:35:10;3.65;;;2.85;;
25419;SDS011;13354;48.174;11.566;2022-11-15T09:37:35;3.60;;;2.38;;
25419;SDS011;13354;48.174;11.566;2022-11-15T09:40:01;5.25;;;2.58;;
25419;SDS011;13354;48.174;11.566;2022-11-15T09:42:30;3.33;;;2.30;;
25419;SDS011;13354;48.174;11.566;2022-11-15T09:45:13;5.45;;;2.45;;
25419;SDS011;13354;48.174;11.566;2022-11-15T09:47:49;4.05;;;2.78;;
25419;SDS011;13354;48.174;11.566;2022-11-15T09:50:19;5.15;;;2.47;;
25419;SDS011;13354;48.174;11.566;2022-11-15T09:52:56;3.00;;;2.30;;
25419;SDS011;13354;48.174;11.566;2022-11-15T09:55:21;5.70;;;2.55;;
25419;SDS011;13354;48.174;11.566;2022-11-15T09:58:21;6.03;;;2.50;;
25419;SDS011;13354;48.174;11.566;2022-11-15T10:00:54;3.22;;;2.70;;
25419;SDS011;13354;48.174;11.566;2022-11-15T10:03:27;3.00;;;2.30;;
25419;SDS011;13354;48.174;11.566;2022-11-15T10:06:00;5.63;;;2.38;;
25419;SDS011;13354;48.174;11.566;2022-11-15T10:11:15;2.30;;;1.85;;
25419;SDS011;13354;48.174;11.566;2022-11-15T10:13:45;2.58;;;2.20;;
25419;SDS011;13354;48.174;11.566;2022-11-15T10:21:52;4.90;;;1.80;;
25419;SDS011;13354;48.174;11.566;2022-11-15T10:24:19;4.07;;;2.40;;
25419;SDS011;13354;48.174;11.566;2022-11-15T10:26:50;3.30;;;1.92;;
25419;SDS011;13354;48.174;11.566;2022-11-15T10:29:22;4.43;;;1.90;;
25419;SDS011;13354;48.174;11.566;2022-11-15T10:31:51;3.83;;;2.33;;
25419;SDS011;13354;48.174;11.566;2022-11-15T10:34:19;5.20;;;2.15;;
25419;SDS011;13354;48.174;11.566;2022-11-15T10:36:46;4.43;;;2.13;;
25419;SDS011;13354;48.174;11.566;2022-11-15T10:39:19;2.67;;;1.67;;
25419;SDS011;13354;48.174;11.566;2022-11-15T10:41:45;2.60;;;1.95;;
25419;SDS011;13354;48.174;11.566;2022-11-15T10:44:12;2.58;;;1.92;;
25419;SDS011;13354;48.174;11.566;2022-11-15T10:46:42;2.65;;;1.45;;
25419;SDS011;13354;48.174;11.566;2022-11-15T10:49:18;2.15;;;1.60;;
25419;SDS011;13354;48.174;11.566;2022-11-15T10:51:49;1.73;;;1.52;;
25419;SDS011;13354;48.174;11.566;2022-11-15T10:54:30;2.80;;;1.48;;
25419;SDS011;13354;48.174;11.566;2022-11-15T10:56:58;2.83;;;1.55;;
25419;SDS011;13354;48.174;11.566;2022-11-15T10:59:29;2.45;;;1.90;;
25419;SDS011;13354;48.174;11.566;2022-11-15T11:01:57;1.65;;;1.52;;
25419;SDS011;13354;48.174;11.566;2022-11-15T11:04:25;2.38;;;1.35;;
25419;SDS011;13354;48.174;11.566;2022-11-15T11:06:55;2.15;;;1.80;;
25419;SDS011;13354;48.174;11.566;2022-11-15T11:09:31;3.72;;;2.00;;
25419;SDS011;13354;48.174;11.566;2022-11-15T11:14:35;1.70;;;1.20;;
25419;SDS011;13354;48.174;11.566;2022-11-15T11:20:11;5.65;;;1.70;;
25419;SDS011;13354;48.174;11.566;2022-11-15T11:31:13;1.95;;;1.42;;
25419;SDS011;13354;48.174;11.566;2022-11-15T11:33:50;4.35;;;1.63;;
25419;SDS011;13354;48.174;11.566;2022-11-15T11:36:54;2.95;;;1.60;;
25419;SDS011;13354;48.174;11.566;2022-11-15T11:39:48;3.85;;;1.45;;
25419;SDS011;13354;48.174;11.566;2022-11-15T11:51:18;2.38;;;1.50;;
25419;SDS011;13354;48.174;11.566;2022-11-15T11:54:00;3.17;;;1.80;;
25419;SDS011;13354;48.174;11.566;2022-11-15T11:56:34;2.75;;;1.50;;
25419;SDS011;13354;48.174;11.566;2022-11-15T12:02:08;3.28;;;1.50;;
25419;SDS011;13354;48.174;11.566;2022-11-15T12:04:44;2.15;;;1.42;;
25419;SDS011;13354;48.174;11.566;2022-11-15T12:07:21;3.05;;;1.63;;
25419;SDS011;13354;48.174;11.566;2022-11-15T12:09:53;5.10;;;1.38;;
25419;SDS011;13354;48.174;11.566;2022-11-15T12:15:27;1.80;;;1.42;;
25419;SDS011;13354;48.174;11.566;2022-11-15T12:18:08;2.67;;;2.10;;
25419;SDS011;13354;48.174;11.566;2022-11-15T12:20:40;2.33;;;1.73;;
25419;SDS011;13354;48.174;11.566;2022-11-15T12:26:19;2.60;;;1.38;;
25419;SDS011;13354;48.174;11.566;2022-11-15T12:28:55;2.60;;;1.40;;
25419;SDS011;13354;48.174;11.566;2022-11-15T12:31:30;2.75;;;1.50;;
25419;SDS011;13354;48.174;11.566;2022-11-15T12:34:13;2.38;;;1.52;;
25419;SDS011;13354;48.174;11.566;2022-11-15T12:36:47;2.95;;;1.40;;
25419;SDS011;13354;48.174;11.566;2022-11-15T12:39:15;1.48;;;1.38;;
25419;SDS011;13354;48.174;11.566;2022-11-15T12:41:41;3.60;;;1.50;;
25419;SDS011;13354;48.174;11.566;2022-11-15T12:44:13;2.85;;;1.40;;
25419;SDS011;13354;48.174;11.566;2022-11-15T13:02:19;6.20;;;2.03;;
25419;SDS011;13354;48.174;11.566;2022-11-15T13:17:58;2.67;;;2.27;;
25419;SDS011;13354;48.174;11.566;2022-11-15T13:20:31;4.65;;;1.90;;
25419;SDS011;13354;48.174;11.566;2022-11-15T13:28:27;2.35;;;1.73;;
25419;SDS011;13354;48.174;11.566;2022-11-15T13:30:55;2.13;;;1.70;;
25419;SDS011;13354;48.174;11.566;2022-11-15T13:40:49;2.42;;;1.85;;
25419;SDS011;13354;48.174;11.566;2022-11-15T13:48:44;3.50;;;2.08;;
25419;SDS011;13354;48.174;11.566;2022-11-15T13:51:22;2.95;;;1.80;;
25419;SDS011;13354;48.174;11.566;2022-11-15T13:54:14;2.63;;;2.17;;
25419;SDS011;13354;48.174;11.566;2022-11-15T13:56:49;4.07;;;2.08;;
25419;SDS011;13354;48.174;11.566;2022-11-15T13:59:24;3.35;;;2.05;;
25419;SDS011;13354;48.174;11.566;2022-11-15T14:01:52;4.38;;;2.15;;
25419;SDS011;13354;48.174;11.566;2022-11-15T14:04:20;2.70;;;2.40;;
25419;SDS011;13354;48.174;11.566;2022-11-15T14:06:55;4.45;;;1.85;;
25419;SDS011;13354;48.174;11.566;2022-11-15T14:11:51;6.67;;;2.40;;
25419;SDS011;13354;48.174;11.566;2022-11-15T14:16:56;3.75;;;2.33;;
25419;SDS011;13354;48.174;11.566;2022-11-15T14:22:08;4.78;;;3.05;;
25419;SDS011;13354;48.174;11.566;2022-11-15T14:24:40;11.20;;;3.33;;
25419;SDS011;13354;48.174;11.566;2022-11-15T14:27:21;6.22;;;3.35;;
25419;SDS011;13354;48.174;11.566;2022-11-15T14:29:48;4.90;;;3.38;;
25419;SDS011;13354;48.174;11.566;2022-11-15T14:32:15;4.13;;;3.25;;
25419;SDS011;13354;48.174;11.566;2022-11-15T14:34:46;4.57;;;3.47;;
25419;SDS011;13354;48.174;11.566;2022-11-15T14:39:57;4.70;;;3.25;;
25419;SDS011;13354;48.174;11.566;2022-11-15T14:42:23;3.85;;;3.45;;
25419;SDS011;13354;48.174;11.566;2022-11-15T14:44:50;5.25;;;3.55;;
25419;SDS011;13354;48.174;11.566;2022-11-15T14:47:16;3.78;;;3.30;;
25419;SDS011;13354;48.174;11.566;2022-11-15T14:49:41;4.47;;;3.25;;
25419;SDS011;13354;48.174;11.566;2022-11-15T14:52:22;7.85;;;3.70;;
25419;SDS011;13354;48.174;11.566;2022-11-15T14:54:50;7.13;;;4.20;;
25419;SDS011;13354;48.174;11.566;2022-11-15T14:57:16;6.65;;;3.53;;
25419;SDS011;13354;48.174;11.566;2022-11-15T14:59:41;7.32;;;4.50;;
25419;SDS011;13354;48.174;11.566;2022-11-15T15:02:25;5.72;;;3.88;;
25419;SDS011;13354;48.174;11.566;2022-11-15T15:04:51;5.60;;;3.85;;
25419;SDS011;13354;48.174;11.566;2022-11-15T15:07:17;7.45;;;4.55;;
25419;SDS011;13354;48.174;11.566;2022-11-15T15:09:43;8.43;;;4.72;;
25419;SDS011;13354;48.174;11.566;2022-11-15T15:12:12;7.25;;;4.47;;
25419;SDS011;13354;48.174;11.566;2022-11-15T15:14:43;6.63;;;5.10;;
25419;SDS011;13354;48.174;11.566;2022-11-15T15:17:08;6.28;;;4.60;;
25419;SDS011;13354;48.174;11.566;2022-11-15T15:19:34;8.57;;;5.95;;
25419;SDS011;13354;48.174;11.566;2022-11-15T15:21:59;9.32;;;5.32;;
25419;SDS011;13354;48.174;11.566;2022-11-15T15:24:24;10.65;;;5.25;;
25419;SDS011;13354;48.174;11.566;2022-11-15T15:26:50;9.82;;;5.60;;
25419;SDS011;13354;48.174;11.566;2022-11-15T15:29:15;10.77;;;7.38;;
25419;SDS011;13354;48.174;11.566;2022-11-15T15:31:41;31.30;;;24.50;;
25419;SDS011;13354;48.174;11.566;2022-11-15T15:34:06;11.63;;;7.25;;
25419;SDS011;13354;48.174;11.566;2022-11-15T15:36:31;7.88;;;5.85;;
25419;SDS011;13354;48.174;11.566;2022-11-15T15:38:57;8.63;;;5.30;;
25419;SDS011;13354;48.174;11.566;2022-11-15T15:41:22;12.10;;;5.50;;
25419;SDS011;13354;48.174;11.566;2022-11-15T15:43:51;10.70;;;7.90;;
25419;SDS011;13354;48.174;11.566;2022-11-15T15:46:17;9.82;;;6.95;;
25419;SDS011;13354;48.174;11.566;2022-11-15T15:48:44;8.90;;;6.38;;
25419;SDS011;13354;48.174;11.566;2022-11-15T15:51:25;6.40;;;5.47;;
25419;SDS011;13354;48.174;11.566;2022-11-15T15:54:00;6.20;;;5.43;;
25419;SDS011;13354;48.174;11.566;2022-11-15T15:56:26;9.60;;;5.72;;
25419;SDS011;13354;48.174;11.566;2022-11-15T15:59:00;7.72;;;5.65;;
25419;SDS011;13354;48.174;11.566;2022-11-15T16:01:30;9.75;;;6.20;;
25419;SDS011;13354;48.174;11.566;2022-11-15T16:03:59;7.68;;;5.65;;
25419;SDS011;13354;48.174;11.566;2022-11-15T16:06:40;8.02;;;5.80;;
25419;SDS011;13354;48.174;11.566;2022-11-15T16:09:16;36.53;;;22.90;;
25419;SDS011;13354;48.174;11.566;2022-11-15T16:12:04;20.98;;;10.50;;
25419;SDS011;13354;48.174;11.566;2022-11-15T16:14:32;11.25;;;7.07;;
25419;SDS011;13354;48.174;11.566;2022-11-15T16:16:58;12.05;;;6.13;;
25419;SDS011;13354;48.174;11.566;2022-11-15T16:19:23;8.82;;;6.25;;
25419;SDS011;13354;48.174;11.566;2022-11-15T16:21:48;8.65;;;6.70;;
25419;SDS011;13354;48.174;11.566;2022-11-15T16:24:14;7.90;;;6.00;;
25419;SDS011;13354;48.174;11.566;2022-11-15T16:26:39;7.25;;;5.93;;
25419;SDS011;13354;48.174;11.566;2022-11-15T16:29:05;9.75;;;6.20;;
25419;SDS011;13354;48.174;11.566;2022-11-15T16:31:32;10.15;;;6.30;;
25419;SDS011;13354;48.174;11.566;2022-11-15T16:33:57;8.95;;;6.30;;
25419;SDS011;13354;48.174;11.566;2022-11-15T16:36:24;8.65;;;6.30;;
25419;SDS011;13354;48.174;11.566;2022-11-15T16:38:51;9.43;;;6.80;;
25419;SDS011;13354;48.174;11.566;2022-11-15T16:41:20;9.27;;;6.18;;